PWSweather.com
Personal Weather Stations
Station Observations
DW6359
Southwest Cambria, Cambria, WI 53923

Southwest CambriaCambria, WI 53923

Lat: 43.541194, Lon: -89.11275

Elevation: 945

Station Type: Davis Vantage Pro2

http://home.centurytel.net/weathercambria/wxcambria.html

High Low Average
Temperature 18.0°F-7.8°C 5.0°F-15.0°C 10.6°F-11.9°C
Dew Point 4.0°F-15.6°C -1.2°F-18.4°C 0.9°F-17.3°C
Winds 13.0 mph 20.9 kmh Calm Calm 2.0 mph WNW3.2 kmh WNW
Wind Gusts 10.0 mph16.1 kmh -- 1.0 mph1.6 kmh
Humidity 76% 45% 65%
Pressure 30.91 in1046.7 mb 30.49 in1032.5 mb -
Precipitation 0.00 in0.0 mm - -
Hour Temp Dew Point Humidity Winds Wind Gusts Pressure Precip Precip Rate Daily Precip Total
12:00 AM 12.1°F-11.1°C 4.5°F-15.3°C 71% 3.0 mph W4.8 kmh W 5.0 mph8.0 kmh 30.44 in1030.8 mb 0.00 in0.0 mm 0.00 in0.0 mm 0.01 in0.3 mm
12:05 AM 11.9°F-11.2°C 4.3°F-15.4°C 71% 3.0 mph W4.8 kmh W 5.0 mph8.0 kmh 30.45 in1031.2 mb 0.00 in0.0 mm 0.00 in0.0 mm 0.01 in0.3 mm
12:10 AM 11.8°F-11.2°C 4.2°F-15.4°C 71% 3.0 mph WSW4.8 kmh WSW -- 30.45 in1031.2 mb 0.00 in0.0 mm 0.00 in0.0 mm 0.01 in0.3 mm
12:15 AM 11.8°F-11.2°C 4.2°F-15.4°C 71% 4.0 mph W6.4 kmh W -- 30.46 in1031.5 mb 0.00 in0.0 mm 0.00 in0.0 mm 0.01 in0.3 mm
12:20 AM 11.7°F-11.3°C 4.1°F-15.5°C 71% 3.0 mph W4.8 kmh W -- 30.46 in1031.5 mb 0.00 in0.0 mm 0.00 in0.0 mm 0.01 in0.3 mm
12:25 AM 11.5°F-11.4°C 4.3°F-15.4°C 72% 2.0 mph W3.2 kmh W -- 30.46 in1031.5 mb 0.00 in0.0 mm 0.00 in0.0 mm 0.01 in0.3 mm
12:30 AM 11.5°F-11.4°C 4.3°F-15.4°C 72% 3.0 mph W4.8 kmh W -- 30.47 in1031.8 mb 0.00 in0.0 mm 0.00 in0.0 mm 0.01 in0.3 mm
12:35 AM 11.5°F-11.4°C 4.3°F-15.4°C 72% 1.0 mph W1.6 kmh W -- 30.47 in1031.8 mb 0.00 in0.0 mm 0.00 in0.0 mm 0.01 in0.3 mm
12:40 AM 11.5°F-11.4°C 4.3°F-15.4°C 72% 3.0 mph W4.8 kmh W -- 30.48 in1032.2 mb 0.00 in0.0 mm 0.00 in0.0 mm 0.01 in0.3 mm
12:45 AM 11.5°F-11.4°C 4.3°F-15.4°C 72% 3.0 mph W4.8 kmh W -- 30.48 in1032.2 mb 0.00 in0.0 mm 0.00 in0.0 mm 0.01 in0.3 mm
12:50 AM 11.5°F-11.4°C 4.3°F-15.4°C 72% 2.0 mph W3.2 kmh W 5.0 mph8.0 kmh 30.48 in1032.2 mb 0.00 in0.0 mm 0.00 in0.0 mm 0.01 in0.3 mm
12:55 AM 11.4°F-11.4°C 4.2°F-15.4°C 72% 3.0 mph W4.8 kmh W 5.0 mph8.0 kmh 30.48 in1032.2 mb 0.00 in0.0 mm 0.00 in0.0 mm 0.01 in0.3 mm
01:00 AM 11.2°F-11.6°C 4.0°F-15.6°C 72% Calm Calm -- 30.49 in1032.5 mb 0.00 in0.0 mm 0.00 in0.0 mm 0.00 in0.0 mm
01:05 AM 11.2°F-11.6°C 4.0°F-15.6°C 72% 2.0 mph W3.2 kmh W -- 30.49 in1032.5 mb 0.00 in0.0 mm 0.00 in0.0 mm 0.00 in0.0 mm
01:10 AM 11.1°F-11.6°C 3.9°F-15.6°C 72% Calm Calm -- 30.50 in1032.8 mb 0.00 in0.0 mm 0.00 in0.0 mm 0.00 in0.0 mm
01:15 AM 10.8°F-11.8°C 3.6°F-15.8°C 72% Calm Calm -- 30.50 in1032.8 mb 0.00 in0.0 mm 0.00 in0.0 mm 0.00 in0.0 mm
01:20 AM 10.5°F-11.9°C 3.3°F-15.9°C 72% Calm Calm -- 30.50 in1032.8 mb 0.00 in0.0 mm 0.00 in0.0 mm 0.00 in0.0 mm
01:25 AM 10.3°F-12.1°C 3.1°F-16.1°C 72% Calm Calm -- 30.51 in1033.2 mb 0.00 in0.0 mm 0.00 in0.0 mm 0.00 in0.0 mm
01:30 AM 10.3°F-12.1°C 3.4°F-15.9°C 73% Calm Calm -- 30.51 in1033.2 mb 0.00 in0.0 mm 0.00 in0.0 mm 0.00 in0.0 mm
01:35 AM 10.0°F-12.2°C 3.1°F-16.1°C 73% 1.0 mph W1.6 kmh W -- 30.51 in1033.2 mb 0.00 in0.0 mm 0.00 in0.0 mm 0.00 in0.0 mm
01:40 AM 9.9°F-12.3°C 3.0°F-16.1°C 73% 1.0 mph W1.6 kmh W 4.0 mph6.4 kmh 30.52 in1033.5 mb 0.00 in0.0 mm 0.00 in0.0 mm 0.00 in0.0 mm
01:45 AM 9.9°F-12.3°C 3.3°F-15.9°C 74% 2.0 mph W3.2 kmh W 4.0 mph6.4 kmh 30.52 in1033.5 mb 0.00 in0.0 mm 0.00 in0.0 mm 0.00 in0.0 mm
01:50 AM 9.8°F-12.3°C 3.2°F-16.0°C 74% 3.0 mph W4.8 kmh W -- 30.52 in1033.5 mb 0.00 in0.0 mm 0.00 in0.0 mm 0.00 in0.0 mm
01:55 AM 9.6°F-12.4°C 3.0°F-16.1°C 74% 3.0 mph W4.8 kmh W -- 30.53 in1033.9 mb 0.00 in0.0 mm 0.00 in0.0 mm 0.00 in0.0 mm
02:00 AM 9.4°F-12.6°C 2.8°F-16.2°C 74% Calm Calm -- 30.53 in1033.9 mb 0.00 in0.0 mm 0.00 in0.0 mm 0.00 in0.0 mm
02:05 AM 9.3°F-12.6°C 2.7°F-16.3°C 74% 3.0 mph W4.8 kmh W -- 30.53 in1033.9 mb 0.00 in0.0 mm 0.00 in0.0 mm 0.00 in0.0 mm
02:10 AM 9.3°F-12.6°C 3.0°F-16.1°C 75% 4.0 mph W6.4 kmh W -- 30.54 in1034.2 mb 0.00 in0.0 mm 0.00 in0.0 mm 0.00 in0.0 mm
02:15 AM 9.3°F-12.6°C 3.0°F-16.1°C 75% 2.0 mph W3.2 kmh W -- 30.54 in1034.2 mb 0.00 in0.0 mm 0.00 in0.0 mm 0.00 in0.0 mm
02:20 AM 9.1°F-12.7°C 2.8°F-16.2°C 75% 2.0 mph W3.2 kmh W -- 30.55 in1034.5 mb 0.00 in0.0 mm 0.00 in0.0 mm 0.00 in0.0 mm
02:25 AM 8.8°F-12.9°C 2.5°F-16.4°C 75% 2.0 mph W3.2 kmh W -- 30.55 in1034.5 mb 0.00 in0.0 mm 0.00 in0.0 mm 0.00 in0.0 mm
02:30 AM 8.6°F-13.0°C 2.3°F-16.5°C 75% Calm Calm 3.0 mph4.8 kmh 30.55 in1034.5 mb 0.00 in0.0 mm 0.00 in0.0 mm 0.00 in0.0 mm
02:35 AM 8.5°F-13.1°C 2.2°F-16.6°C 75% 1.0 mph W1.6 kmh W 3.0 mph4.8 kmh 30.55 in1034.5 mb 0.00 in0.0 mm 0.00 in0.0 mm 0.00 in0.0 mm
02:40 AM 8.5°F-13.1°C 2.5°F-16.4°C 76% 3.0 mph W4.8 kmh W -- 30.56 in1034.9 mb 0.00 in0.0 mm 0.00 in0.0 mm 0.00 in0.0 mm
02:45 AM 8.7°F-12.9°C 2.7°F-16.3°C 76% 2.0 mph W3.2 kmh W -- 30.56 in1034.9 mb 0.00 in0.0 mm 0.00 in0.0 mm 0.00 in0.0 mm
02:50 AM 8.7°F-12.9°C 2.7°F-16.3°C 76% 2.0 mph W3.2 kmh W -- 30.56 in1034.9 mb 0.00 in0.0 mm 0.00 in0.0 mm 0.00 in0.0 mm
02:55 AM 8.7°F-12.9°C 2.7°F-16.3°C 76% 3.0 mph W4.8 kmh W -- 30.57 in1035.2 mb 0.00 in0.0 mm 0.00 in0.0 mm 0.00 in0.0 mm
03:00 AM 8.7°F-12.9°C 2.4°F-16.4°C 75% 3.0 mph W4.8 kmh W -- 30.57 in1035.2 mb 0.00 in0.0 mm 0.00 in0.0 mm 0.00 in0.0 mm
03:05 AM 8.5°F-13.1°C 2.2°F-16.6°C 75% 4.0 mph NW6.4 kmh NW -- 30.58 in1035.6 mb 0.00 in0.0 mm 0.00 in0.0 mm 0.00 in0.0 mm
03:10 AM 8.5°F-13.1°C 2.5°F-16.4°C 76% 4.0 mph WNW6.4 kmh WNW -- 30.58 in1035.6 mb 0.00 in0.0 mm 0.00 in0.0 mm 0.00 in0.0 mm
03:15 AM 8.7°F-12.9°C 2.7°F-16.3°C 76% 3.0 mph WNW4.8 kmh WNW -- 30.58 in1035.6 mb 0.00 in0.0 mm 0.00 in0.0 mm 0.00 in0.0 mm
03:20 AM 9.1°F-12.7°C 3.1°F-16.1°C 76% 4.0 mph WNW6.4 kmh WNW 6.0 mph9.7 kmh 30.58 in1035.6 mb 0.00 in0.0 mm 0.00 in0.0 mm 0.00 in0.0 mm
03:25 AM 9.1°F-12.7°C 2.8°F-16.2°C 75% 3.0 mph WNW4.8 kmh WNW 6.0 mph9.7 kmh 30.59 in1035.9 mb 0.00 in0.0 mm 0.00 in0.0 mm 0.00 in0.0 mm
03:30 AM 9.4°F-12.6°C 3.1°F-16.1°C 75% 5.0 mph NW8.0 kmh NW -- 30.59 in1035.9 mb 0.00 in0.0 mm 0.00 in0.0 mm 0.00 in0.0 mm
03:35 AM 9.7°F-12.4°C 3.1°F-16.1°C 74% 5.0 mph WNW8.0 kmh WNW -- 30.59 in1035.9 mb 0.00 in0.0 mm 0.00 in0.0 mm 0.00 in0.0 mm
03:40 AM 9.8°F-12.3°C 3.2°F-16.0°C 74% 4.0 mph WNW6.4 kmh WNW -- 30.59 in1035.9 mb 0.00 in0.0 mm 0.00 in0.0 mm 0.00 in0.0 mm
03:45 AM 9.9°F-12.3°C 3.0°F-16.1°C 73% 5.0 mph WNW8.0 kmh WNW -- 30.59 in1035.9 mb 0.00 in0.0 mm 0.00 in0.0 mm 0.00 in0.0 mm
03:50 AM 9.9°F-12.3°C 3.0°F-16.1°C 73% 4.0 mph WNW6.4 kmh WNW -- 30.59 in1035.9 mb 0.00 in0.0 mm 0.00 in0.0 mm 0.00 in0.0 mm
03:55 AM 10.1°F-12.2°C 3.5°F-15.8°C 74% 3.0 mph WNW4.8 kmh WNW -- 30.59 in1035.9 mb 0.00 in0.0 mm 0.00 in0.0 mm 0.00 in0.0 mm
04:00 AM 10.0°F-12.2°C 3.1°F-16.1°C 73% 3.0 mph WNW4.8 kmh WNW -- 30.60 in1036.2 mb 0.00 in0.0 mm 0.00 in0.0 mm 0.00 in0.0 mm
04:05 AM 9.8°F-12.3°C 2.9°F-16.2°C 73% 4.0 mph NW6.4 kmh NW -- 30.60 in1036.2 mb 0.00 in0.0 mm 0.00 in0.0 mm 0.00 in0.0 mm
04:10 AM 9.8°F-12.3°C 3.2°F-16.0°C 74% 4.0 mph NW6.4 kmh NW 9.0 mph14.5 kmh 30.60 in1036.2 mb 0.00 in0.0 mm 0.00 in0.0 mm 0.00 in0.0 mm
04:15 AM 10.0°F-12.2°C 3.4°F-15.9°C 74% 6.0 mph NW9.7 kmh NW 9.0 mph14.5 kmh 30.60 in1036.2 mb 0.00 in0.0 mm 0.00 in0.0 mm 0.00 in0.0 mm
04:20 AM 10.1°F-12.2°C 3.2°F-16.0°C 73% 3.0 mph NW4.8 kmh NW -- 30.60 in1036.2 mb 0.00 in0.0 mm 0.00 in0.0 mm 0.00 in0.0 mm
04:25 AM 10.0°F-12.2°C 3.1°F-16.1°C 73% 7.0 mph WNW11.3 kmh WNW -- 30.60 in1036.2 mb 0.00 in0.0 mm 0.00 in0.0 mm 0.00 in0.0 mm
04:30 AM 9.9°F-12.3°C 3.0°F-16.1°C 73% 3.0 mph WNW4.8 kmh WNW -- 30.60 in1036.2 mb 0.00 in0.0 mm 0.00 in0.0 mm 0.00 in0.0 mm
04:35 AM 9.6°F-12.4°C 2.7°F-16.3°C 73% 3.0 mph NW4.8 kmh NW -- 30.60 in1036.2 mb 0.00 in0.0 mm 0.00 in0.0 mm 0.00 in0.0 mm
04:40 AM 9.4°F-12.6°C 2.5°F-16.4°C 73% 5.0 mph WNW8.0 kmh WNW -- 30.61 in1036.6 mb 0.00 in0.0 mm 0.00 in0.0 mm 0.00 in0.0 mm
04:45 AM 9.3°F-12.6°C 2.7°F-16.3°C 74% 5.0 mph NW8.0 kmh NW -- 30.61 in1036.6 mb 0.00 in0.0 mm 0.00 in0.0 mm 0.00 in0.0 mm
04:50 AM 9.2°F-12.7°C 2.3°F-16.5°C 73% 5.0 mph WNW8.0 kmh WNW -- 30.62 in1036.9 mb 0.00 in0.0 mm 0.00 in0.0 mm 0.00 in0.0 mm
04:55 AM 9.0°F-12.8°C 2.4°F-16.4°C 74% 4.0 mph WNW6.4 kmh WNW -- 30.62 in1036.9 mb 0.00 in0.0 mm 0.00 in0.0 mm 0.00 in0.0 mm
05:00 AM 8.9°F-12.8°C 2.3°F-16.5°C 74% 5.0 mph NW8.0 kmh NW 8.0 mph12.9 kmh 30.63 in1037.3 mb 0.00 in0.0 mm 0.00 in0.0 mm 0.00 in0.0 mm
05:05 AM 8.1°F-13.3°C 1.6°F-16.9°C 74% 8.0 mph NW12.9 kmh NW 8.0 mph12.9 kmh 30.63 in1037.3 mb 0.00 in0.0 mm 0.00 in0.0 mm 0.00 in0.0 mm
05:10 AM 8.0°F-13.3°C 1.5°F-16.9°C 74% 6.0 mph NW9.7 kmh NW -- 30.64 in1037.6 mb 0.00 in0.0 mm 0.00 in0.0 mm 0.00 in0.0 mm
05:15 AM 7.7°F-13.5°C 1.2°F-17.1°C 74% 13.0 mph NW20.9 kmh NW -- 30.64 in1037.6 mb 0.00 in0.0 mm 0.00 in0.0 mm 0.00 in0.0 mm
05:20 AM 7.6°F-13.6°C 1.1°F-17.2°C 74% 10.0 mph NW16.1 kmh NW -- 30.65 in1037.9 mb 0.00 in0.0 mm 0.00 in0.0 mm 0.00 in0.0 mm
05:25 AM 7.5°F-13.6°C 1.0°F-17.2°C 74% 9.0 mph NW14.5 kmh NW -- 30.65 in1037.9 mb 0.00 in0.0 mm 0.00 in0.0 mm 0.00 in0.0 mm
05:30 AM 7.4°F-13.7°C 0.6°F-17.4°C 73% 12.0 mph WNW19.3 kmh WNW -- 30.66 in1038.3 mb 0.00 in0.0 mm 0.00 in0.0 mm 0.00 in0.0 mm
05:35 AM 7.6°F-13.6°C 0.8°F-17.3°C 73% 10.0 mph NW16.1 kmh NW -- 30.66 in1038.3 mb 0.00 in0.0 mm 0.00 in0.0 mm 0.00 in0.0 mm
05:40 AM 7.9°F-13.4°C 1.1°F-17.2°C 73% 8.0 mph NW12.9 kmh NW -- 30.67 in1038.6 mb 0.00 in0.0 mm 0.00 in0.0 mm 0.00 in0.0 mm
05:45 AM 8.5°F-13.1°C 1.7°F-16.8°C 73% 4.0 mph W6.4 kmh W -- 30.68 in1038.9 mb 0.00 in0.0 mm 0.00 in0.0 mm 0.00 in0.0 mm
05:50 AM 8.2°F-13.2°C 1.4°F-17.0°C 73% 4.0 mph NW6.4 kmh NW 10.0 mph16.1 kmh 30.68 in1038.9 mb 0.00 in0.0 mm 0.00 in0.0 mm 0.00 in0.0 mm
05:55 AM 8.0°F-13.3°C 1.2°F-17.1°C 73% 3.0 mph NW4.8 kmh NW 10.0 mph16.1 kmh 30.68 in1038.9 mb 0.00 in0.0 mm 0.00 in0.0 mm 0.00 in0.0 mm
06:00 AM 7.9°F-13.4°C 1.4°F-17.0°C 74% 4.0 mph WNW6.4 kmh WNW -- 30.69 in1039.3 mb 0.00 in0.0 mm 0.00 in0.0 mm 0.00 in0.0 mm
06:05 AM 7.8°F-13.4°C 1.3°F-17.1°C 74% 5.0 mph NW8.0 kmh NW -- 30.70 in1039.6 mb 0.00 in0.0 mm 0.00 in0.0 mm 0.00 in0.0 mm
06:10 AM 7.4°F-13.7°C 0.9°F-17.3°C 74% 4.0 mph NW6.4 kmh NW -- 30.70 in1039.6 mb 0.00 in0.0 mm 0.00 in0.0 mm 0.00 in0.0 mm
06:15 AM 7.2°F-13.8°C 0.7°F-17.4°C 74% 3.0 mph NW4.8 kmh NW -- 30.70 in1039.6 mb 0.00 in0.0 mm 0.00 in0.0 mm 0.00 in0.0 mm
06:20 AM 7.1°F-13.8°C 0.6°F-17.4°C 74% 2.0 mph WNW3.2 kmh WNW -- 30.70 in1039.6 mb 0.00 in0.0 mm 0.00 in0.0 mm 0.00 in0.0 mm
06:25 AM 6.8°F-14.0°C 0.3°F-17.6°C 74% 3.0 mph WNW4.8 kmh WNW -- 30.70 in1039.6 mb 0.00 in0.0 mm 0.00 in0.0 mm 0.00 in0.0 mm
06:30 AM 6.7°F-14.1°C 0.5°F-17.5°C 75% 1.0 mph WNW1.6 kmh WNW -- 30.71 in1040.0 mb 0.00 in0.0 mm 0.00 in0.0 mm 0.00 in0.0 mm
06:35 AM 6.5°F-14.2°C 0.3°F-17.6°C 75% Calm Calm -- 30.71 in1040.0 mb 0.00 in0.0 mm 0.00 in0.0 mm 0.00 in0.0 mm
06:40 AM 6.2°F-14.3°C 0.0°F-17.8°C 75% Calm Calm 3.0 mph4.8 kmh 30.72 in1040.3 mb 0.00 in0.0 mm 0.00 in0.0 mm 0.00 in0.0 mm
06:45 AM 6.0°F-14.4°C -0.2°F-17.9°C 75% Calm Calm 3.0 mph4.8 kmh 30.73 in1040.6 mb 0.00 in0.0 mm 0.00 in0.0 mm 0.00 in0.0 mm
06:50 AM 5.7°F-14.6°C -0.5°F-18.1°C 75% Calm Calm -- 30.73 in1040.6 mb 0.00 in0.0 mm 0.00 in0.0 mm 0.00 in0.0 mm
06:55 AM 5.4°F-14.8°C -0.8°F-18.2°C 75% 1.0 mph WNW1.6 kmh WNW -- 30.73 in1040.6 mb 0.00 in0.0 mm 0.00 in0.0 mm 0.00 in0.0 mm
07:00 AM 5.2°F-14.9°C -0.7°F-18.2°C 76% Calm Calm -- 30.73 in1040.6 mb 0.00 in0.0 mm 0.00 in0.0 mm 0.00 in0.0 mm
07:05 AM 5.2°F-14.9°C -0.7°F-18.2°C 76% Calm Calm -- 30.74 in1041.0 mb 0.00 in0.0 mm 0.00 in0.0 mm 0.00 in0.0 mm
07:10 AM 5.5°F-14.7°C -0.4°F-18.0°C 76% 3.0 mph WNW4.8 kmh WNW -- 30.74 in1041.0 mb 0.00 in0.0 mm 0.00 in0.0 mm 0.00 in0.0 mm
07:15 AM 5.7°F-14.6°C -0.5°F-18.1°C 75% 1.0 mph WNW1.6 kmh WNW -- 30.74 in1041.0 mb 0.00 in0.0 mm 0.00 in0.0 mm 0.00 in0.0 mm
07:20 AM 5.8°F-14.6°C -0.4°F-18.0°C 75% 4.0 mph WNW6.4 kmh WNW -- 30.74 in1041.0 mb 0.00 in0.0 mm 0.00 in0.0 mm 0.00 in0.0 mm
07:25 AM 5.8°F-14.6°C -0.4°F-18.0°C 75% 3.0 mph WNW4.8 kmh WNW -- 30.74 in1041.0 mb 0.00 in0.0 mm 0.00 in0.0 mm 0.00 in0.0 mm
07:30 AM 5.7°F-14.6°C -0.8°F-18.2°C 74% 2.0 mph WNW3.2 kmh WNW 5.0 mph8.0 kmh 30.74 in1041.0 mb 0.00 in0.0 mm 0.00 in0.0 mm 0.00 in0.0 mm
07:35 AM 5.4°F-14.8°C -1.1°F-18.4°C 74% 2.0 mph WNW3.2 kmh WNW 5.0 mph8.0 kmh 30.74 in1041.0 mb 0.00 in0.0 mm 0.00 in0.0 mm 0.00 in0.0 mm
07:40 AM 5.2°F-14.9°C -1.0°F-18.3°C 75% 3.0 mph WNW4.8 kmh WNW -- 30.75 in1041.3 mb 0.00 in0.0 mm 0.00 in0.0 mm 0.00 in0.0 mm
07:45 AM 5.1°F-14.9°C -1.1°F-18.4°C 75% 3.0 mph WNW4.8 kmh WNW -- 30.75 in1041.3 mb 0.00 in0.0 mm 0.00 in0.0 mm 0.00 in0.0 mm
07:50 AM 5.0°F-15.0°C -1.2°F-18.4°C 75% 4.0 mph NW6.4 kmh NW -- 30.75 in1041.3 mb 0.00 in0.0 mm 0.00 in0.0 mm 0.00 in0.0 mm
07:55 AM 5.1°F-14.9°C -0.8°F-18.2°C 76% 4.0 mph NW6.4 kmh NW -- 30.75 in1041.3 mb 0.00 in0.0 mm 0.00 in0.0 mm 0.00 in0.0 mm
08:00 AM 5.2°F-14.9°C -1.0°F-18.3°C 75% 4.0 mph WNW6.4 kmh WNW -- 30.76 in1041.7 mb 0.00 in0.0 mm 0.00 in0.0 mm 0.00 in0.0 mm
08:05 AM 5.1°F-14.9°C -1.1°F-18.4°C 75% 2.0 mph NW3.2 kmh NW -- 30.76 in1041.7 mb 0.00 in0.0 mm 0.00 in0.0 mm 0.00 in0.0 mm
08:10 AM 5.3°F-14.8°C -0.6°F-18.1°C 76% 4.0 mph NW6.4 kmh NW -- 30.76 in1041.7 mb 0.00 in0.0 mm 0.00 in0.0 mm 0.00 in0.0 mm
08:15 AM 5.3°F-14.8°C -0.9°F-18.3°C 75% 4.0 mph NW6.4 kmh NW -- 30.77 in1042.0 mb 0.00 in0.0 mm 0.00 in0.0 mm 0.00 in0.0 mm
08:20 AM 5.3°F-14.8°C -0.9°F-18.3°C 75% 4.0 mph NW6.4 kmh NW 8.0 mph12.9 kmh 30.77 in1042.0 mb 0.00 in0.0 mm 0.00 in0.0 mm 0.00 in0.0 mm
08:25 AM 5.5°F-14.7°C -0.7°F-18.2°C 75% 6.0 mph NW9.7 kmh NW 8.0 mph12.9 kmh 30.77 in1042.0 mb 0.00 in0.0 mm 0.00 in0.0 mm 0.00 in0.0 mm
08:30 AM 5.6°F-14.7°C -0.6°F-18.1°C 75% 6.0 mph WNW9.7 kmh WNW -- 30.77 in1042.0 mb 0.00 in0.0 mm 0.00 in0.0 mm 0.00 in0.0 mm
08:35 AM 5.6°F-14.7°C -0.6°F-18.1°C 75% 5.0 mph NW8.0 kmh NW -- 30.77 in1042.0 mb 0.00 in0.0 mm 0.00 in0.0 mm 0.00 in0.0 mm
08:40 AM 5.7°F-14.6°C -0.5°F-18.1°C 75% 5.0 mph NW8.0 kmh NW -- 30.77 in1042.0 mb 0.00 in0.0 mm 0.00 in0.0 mm 0.00 in0.0 mm
08:45 AM 5.9°F-14.5°C -0.6°F-18.1°C 74% 4.0 mph NW6.4 kmh NW -- 30.77 in1042.0 mb 0.00 in0.0 mm 0.00 in0.0 mm 0.00 in0.0 mm
08:50 AM 6.0°F-14.4°C -0.5°F-18.1°C 74% 2.0 mph WNW3.2 kmh WNW -- 30.78 in1042.3 mb 0.00 in0.0 mm 0.00 in0.0 mm 0.00 in0.0 mm
08:55 AM 5.9°F-14.5°C -0.6°F-18.1°C 74% 4.0 mph NW6.4 kmh NW -- 30.78 in1042.3 mb 0.00 in0.0 mm 0.00 in0.0 mm 0.00 in0.0 mm
09:00 AM 6.0°F-14.4°C -0.5°F-18.1°C 74% 4.0 mph NW6.4 kmh NW -- 30.77 in1042.0 mb 0.00 in0.0 mm 0.00 in0.0 mm 0.00 in0.0 mm
09:05 AM 6.0°F-14.4°C -0.5°F-18.1°C 74% 4.0 mph NW6.4 kmh NW -- 30.78 in1042.3 mb 0.00 in0.0 mm 0.00 in0.0 mm 0.00 in0.0 mm
09:10 AM 6.2°F-14.3°C -0.3°F-17.9°C 74% 4.0 mph NW6.4 kmh NW 7.0 mph11.3 kmh 30.78 in1042.3 mb 0.00 in0.0 mm 0.00 in0.0 mm 0.00 in0.0 mm
09:15 AM 6.4°F-14.2°C -0.1°F-17.8°C 74% 5.0 mph NW8.0 kmh NW 7.0 mph11.3 kmh 30.79 in1042.7 mb 0.00 in0.0 mm 0.00 in0.0 mm 0.00 in0.0 mm
09:20 AM 6.7°F-14.1°C -0.1°F-17.8°C 73% 4.0 mph W6.4 kmh W -- 30.79 in1042.7 mb 0.00 in0.0 mm 0.00 in0.0 mm 0.00 in0.0 mm
09:25 AM 6.8°F-14.0°C 0.0°F-17.8°C 73% 4.0 mph NW6.4 kmh NW -- 30.80 in1043.0 mb 0.00 in0.0 mm 0.00 in0.0 mm 0.00 in0.0 mm
09:30 AM 6.9°F-13.9°C 0.1°F-17.7°C 73% 4.0 mph NW6.4 kmh NW -- 30.80 in1043.0 mb 0.00 in0.0 mm 0.00 in0.0 mm 0.00 in0.0 mm
09:35 AM 7.2°F-13.8°C 0.1°F-17.7°C 72% 2.0 mph WNW3.2 kmh WNW -- 30.80 in1043.0 mb 0.00 in0.0 mm 0.00 in0.0 mm 0.00 in0.0 mm
09:40 AM 7.3°F-13.7°C -0.1°F-17.8°C 71% 6.0 mph NW9.7 kmh NW -- 30.80 in1043.0 mb 0.00 in0.0 mm 0.00 in0.0 mm 0.00 in0.0 mm
09:45 AM 7.5°F-13.6°C -0.2°F-17.9°C 70% 8.0 mph NW12.9 kmh NW -- 30.81 in1043.3 mb 0.00 in0.0 mm 0.00 in0.0 mm 0.00 in0.0 mm
09:50 AM 7.7°F-13.5°C 0.0°F-17.8°C 70% 2.0 mph N3.2 kmh N -- 30.82 in1043.7 mb 0.00 in0.0 mm 0.00 in0.0 mm 0.00 in0.0 mm
09:55 AM 7.9°F-13.4°C 0.2°F-17.7°C 70% 4.0 mph NNW6.4 kmh NNW -- 30.82 in1043.7 mb 0.00 in0.0 mm 0.00 in0.0 mm 0.00 in0.0 mm
10:00 AM 8.1°F-13.3°C 0.1°F-17.7°C 69% 4.0 mph WNW6.4 kmh WNW 7.0 mph11.3 kmh 30.82 in1043.7 mb 0.00 in0.0 mm 0.00 in0.0 mm 0.00 in0.0 mm
10:05 AM 8.3°F-13.2°C 0.3°F-17.6°C 69% 2.0 mph W3.2 kmh W 7.0 mph11.3 kmh 30.83 in1044.0 mb 0.00 in0.0 mm 0.00 in0.0 mm 0.00 in0.0 mm
10:10 AM 8.5°F-13.1°C 0.1°F-17.7°C 68% 4.0 mph NW6.4 kmh NW -- 30.83 in1044.0 mb 0.00 in0.0 mm 0.00 in0.0 mm 0.00 in0.0 mm
10:15 AM 8.7°F-12.9°C 0.0°F-17.8°C 67% 1.0 mph NNW1.6 kmh NNW -- 30.83 in1044.0 mb 0.00 in0.0 mm 0.00 in0.0 mm 0.00 in0.0 mm
10:20 AM 9.0°F-12.8°C 0.3°F-17.6°C 67% 3.0 mph NW4.8 kmh NW -- 30.83 in1044.0 mb 0.00 in0.0 mm 0.00 in0.0 mm 0.00 in0.0 mm
10:25 AM 9.2°F-12.7°C 0.5°F-17.5°C 67% 2.0 mph NNW3.2 kmh NNW -- 30.84 in1044.4 mb 0.00 in0.0 mm 0.00 in0.0 mm 0.00 in0.0 mm
10:30 AM 9.3°F-12.6°C 0.3°F-17.6°C 66% 2.0 mph NNW3.2 kmh NNW -- 30.84 in1044.4 mb 0.00 in0.0 mm 0.00 in0.0 mm 0.00 in0.0 mm
10:35 AM 9.4°F-12.6°C 0.4°F-17.6°C 66% 3.0 mph WNW4.8 kmh WNW -- 30.85 in1044.7 mb 0.00 in0.0 mm 0.00 in0.0 mm 0.00 in0.0 mm
10:40 AM 9.6°F-12.4°C 0.2°F-17.7°C 65% 3.0 mph NW4.8 kmh NW -- 30.84 in1044.4 mb 0.00 in0.0 mm 0.00 in0.0 mm 0.00 in0.0 mm
10:45 AM 9.6°F-12.4°C 0.2°F-17.7°C 65% Calm Calm -- 30.84 in1044.4 mb 0.00 in0.0 mm 0.00 in0.0 mm 0.00 in0.0 mm
10:50 AM 9.8°F-12.3°C 0.4°F-17.6°C 65% 5.0 mph NW8.0 kmh NW 6.0 mph9.7 kmh 30.84 in1044.4 mb 0.00 in0.0 mm 0.00 in0.0 mm 0.00 in0.0 mm
10:55 AM 9.9°F-12.3°C 0.2°F-17.7°C 64% 3.0 mph N4.8 kmh N 6.0 mph9.7 kmh 30.85 in1044.7 mb 0.00 in0.0 mm 0.00 in0.0 mm 0.00 in0.0 mm
11:00 AM 10.2°F-12.1°C 0.8°F-17.3°C 65% 4.0 mph NW6.4 kmh NW -- 30.85 in1044.7 mb 0.00 in0.0 mm 0.00 in0.0 mm 0.00 in0.0 mm
11:05 AM 10.3°F-12.1°C 0.6°F-17.4°C 64% Calm Calm -- 30.86 in1045.0 mb 0.00 in0.0 mm 0.00 in0.0 mm 0.00 in0.0 mm
11:10 AM 10.5°F-11.9°C 0.8°F-17.3°C 64% 3.0 mph NNW4.8 kmh NNW -- 30.86 in1045.0 mb 0.00 in0.0 mm 0.00 in0.0 mm 0.00 in0.0 mm
11:15 AM 10.5°F-11.9°C 0.4°F-17.6°C 63% 3.0 mph NW4.8 kmh NW -- 30.86 in1045.0 mb 0.00 in0.0 mm 0.00 in0.0 mm 0.00 in0.0 mm
11:20 AM 10.8°F-11.8°C 0.7°F-17.4°C 63% Calm Calm -- 30.87 in1045.4 mb 0.00 in0.0 mm 0.00 in0.0 mm 0.00 in0.0 mm
11:25 AM 10.9°F-11.7°C 0.8°F-17.3°C 63% 2.0 mph NW3.2 kmh NW -- 30.87 in1045.4 mb 0.00 in0.0 mm 0.00 in0.0 mm 0.00 in0.0 mm
11:30 AM 11.0°F-11.7°C 0.6°F-17.4°C 62% 3.0 mph NW4.8 kmh NW -- 30.87 in1045.4 mb 0.00 in0.0 mm 0.00 in0.0 mm 0.00 in0.0 mm
11:35 AM 11.2°F-11.6°C 1.1°F-17.2°C 63% Calm Calm -- 30.87 in1045.4 mb 0.00 in0.0 mm 0.00 in0.0 mm 0.00 in0.0 mm
11:40 AM 11.4°F-11.4°C 0.9°F-17.3°C 62% 2.0 mph NW3.2 kmh NW 5.0 mph8.0 kmh 30.86 in1045.0 mb 0.00 in0.0 mm 0.00 in0.0 mm 0.00 in0.0 mm
11:45 AM 11.5°F-11.4°C 1.0°F-17.2°C 62% 4.0 mph NW6.4 kmh NW 5.0 mph8.0 kmh 30.87 in1045.4 mb 0.00 in0.0 mm 0.00 in0.0 mm 0.00 in0.0 mm
11:50 AM 11.7°F-11.3°C 1.2°F-17.1°C 62% 2.0 mph WNW3.2 kmh WNW -- 30.87 in1045.4 mb 0.00 in0.0 mm 0.00 in0.0 mm 0.00 in0.0 mm
11:55 AM 11.8°F-11.2°C 1.0°F-17.2°C 61% Calm Calm -- 30.87 in1045.4 mb 0.00 in0.0 mm 0.00 in0.0 mm 0.00 in0.0 mm
12:00 PM 11.9°F-11.2°C 1.1°F-17.2°C 61% 4.0 mph NW6.4 kmh NW -- 30.87 in1045.4 mb 0.00 in0.0 mm 0.00 in0.0 mm 0.00 in0.0 mm
12:05 PM 12.2°F-11.0°C 1.4°F-17.0°C 61% 4.0 mph NNW6.4 kmh NNW -- 30.88 in1045.7 mb 0.00 in0.0 mm 0.00 in0.0 mm 0.00 in0.0 mm
12:10 PM 12.2°F-11.0°C 1.0°F-17.2°C 60% 4.0 mph WNW6.4 kmh WNW -- 30.88 in1045.7 mb 0.00 in0.0 mm 0.00 in0.0 mm 0.00 in0.0 mm
12:15 PM 12.0°F-11.1°C 0.8°F-17.3°C 60% 4.0 mph W6.4 kmh W -- 30.88 in1045.7 mb 0.00 in0.0 mm 0.00 in0.0 mm 0.00 in0.0 mm
12:20 PM 11.9°F-11.2°C 0.7°F-17.4°C 60% 6.0 mph NW9.7 kmh NW -- 30.88 in1045.7 mb 0.00 in0.0 mm 0.00 in0.0 mm 0.00 in0.0 mm
12:25 PM 12.1°F-11.1°C 0.9°F-17.3°C 60% 5.0 mph W8.0 kmh W -- 30.88 in1045.7 mb 0.00 in0.0 mm 0.00 in0.0 mm 0.00 in0.0 mm
12:30 PM 12.1°F-11.1°C 0.9°F-17.3°C 60% 2.0 mph NW3.2 kmh NW 7.0 mph11.3 kmh 30.88 in1045.7 mb 0.00 in0.0 mm 0.00 in0.0 mm 0.00 in0.0 mm
12:35 PM 12.3°F-10.9°C 0.7°F-17.4°C 59% 4.0 mph WNW6.4 kmh WNW 7.0 mph11.3 kmh 30.88 in1045.7 mb 0.00 in0.0 mm 0.00 in0.0 mm 0.00 in0.0 mm
12:40 PM 12.4°F-10.9°C 0.8°F-17.3°C 59% 4.0 mph W6.4 kmh W -- 30.88 in1045.7 mb 0.00 in0.0 mm 0.00 in0.0 mm 0.00 in0.0 mm
12:45 PM 12.5°F-10.8°C 0.9°F-17.3°C 59% 3.0 mph W4.8 kmh W -- 30.89 in1046.1 mb 0.00 in0.0 mm 0.00 in0.0 mm 0.00 in0.0 mm
12:50 PM 12.8°F-10.7°C 1.6°F-16.9°C 60% 3.0 mph WNW4.8 kmh WNW -- 30.89 in1046.1 mb 0.00 in0.0 mm 0.00 in0.0 mm 0.00 in0.0 mm
12:55 PM 13.2°F-10.4°C 1.6°F-16.9°C 59% 5.0 mph WNW8.0 kmh WNW -- 30.89 in1046.1 mb 0.00 in0.0 mm 0.00 in0.0 mm 0.00 in0.0 mm
01:00 PM 13.4°F-10.3°C 1.4°F-17.0°C 58% 4.0 mph W6.4 kmh W -- 30.89 in1046.1 mb 0.00 in0.0 mm 0.00 in0.0 mm 0.00 in0.0 mm
01:05 PM 13.4°F-10.3°C 0.7°F-17.4°C 56% 3.0 mph W4.8 kmh W -- 30.89 in1046.1 mb 0.00 in0.0 mm 0.00 in0.0 mm 0.00 in0.0 mm
01:10 PM 13.5°F-10.3°C 0.8°F-17.3°C 56% 5.0 mph W8.0 kmh W -- 30.88 in1045.7 mb 0.00 in0.0 mm 0.00 in0.0 mm 0.00 in0.0 mm
01:15 PM 13.6°F-10.2°C -0.3°F-17.9°C 53% 4.0 mph WNW6.4 kmh WNW -- 30.88 in1045.7 mb 0.00 in0.0 mm 0.00 in0.0 mm 0.00 in0.0 mm
01:20 PM 13.6°F-10.2°C -0.3°F-17.9°C 53% Calm Calm 7.0 mph11.3 kmh 30.88 in1045.7 mb 0.00 in0.0 mm 0.00 in0.0 mm 0.00 in0.0 mm
01:25 PM 13.7°F-10.2°C -0.6°F-18.1°C 52% 2.0 mph NW3.2 kmh NW 7.0 mph11.3 kmh 30.88 in1045.7 mb 0.00 in0.0 mm 0.00 in0.0 mm 0.00 in0.0 mm
01:30 PM 13.8°F-10.1°C -0.1°F-17.8°C 53% 3.0 mph NW4.8 kmh NW -- 30.89 in1046.1 mb 0.00 in0.0 mm 0.00 in0.0 mm 0.00 in0.0 mm
01:35 PM 14.0°F-10.0°C 0.1°F-17.7°C 53% 4.0 mph NW6.4 kmh NW -- 30.89 in1046.1 mb 0.00 in0.0 mm 0.00 in0.0 mm 0.00 in0.0 mm
01:40 PM 14.2°F-9.9°C -0.6°F-18.1°C 51% 3.0 mph WNW4.8 kmh WNW -- 30.88 in1045.7 mb 0.00 in0.0 mm 0.00 in0.0 mm 0.00 in0.0 mm
01:45 PM 14.5°F-9.7°C -0.3°F-17.9°C 51% 2.0 mph NW3.2 kmh NW -- 30.89 in1046.1 mb 0.00 in0.0 mm 0.00 in0.0 mm 0.00 in0.0 mm
01:50 PM 14.7°F-9.6°C -1.0°F-18.3°C 49% 3.0 mph NW4.8 kmh NW -- 30.88 in1045.7 mb 0.00 in0.0 mm 0.00 in0.0 mm 0.00 in0.0 mm
01:55 PM 14.9°F-9.5°C -0.3°F-17.9°C 50% 4.0 mph WNW6.4 kmh WNW -- 30.88 in1045.7 mb 0.00 in0.0 mm 0.00 in0.0 mm 0.00 in0.0 mm
02:00 PM 15.0°F-9.4°C -0.2°F-17.9°C 50% 2.0 mph NW3.2 kmh NW -- 30.88 in1045.7 mb 0.00 in0.0 mm 0.00 in0.0 mm 0.00 in0.0 mm
02:05 PM 15.1°F-9.4°C -0.6°F-18.1°C 49% 7.0 mph NW11.3 kmh NW -- 30.88 in1045.7 mb 0.00 in0.0 mm 0.00 in0.0 mm 0.00 in0.0 mm
02:10 PM 15.5°F-9.2°C -0.2°F-17.9°C 49% 2.0 mph NW3.2 kmh NW 7.0 mph11.3 kmh 30.88 in1045.7 mb 0.00 in0.0 mm 0.00 in0.0 mm 0.00 in0.0 mm
02:15 PM 15.7°F-9.1°C 0.0°F-17.8°C 49% 4.0 mph W6.4 kmh W 7.0 mph11.3 kmh 30.88 in1045.7 mb 0.00 in0.0 mm 0.00 in0.0 mm 0.00 in0.0 mm
02:20 PM 15.9°F-8.9°C 0.2°F-17.7°C 49% 1.0 mph W1.6 kmh W -- 30.88 in1045.7 mb 0.00 in0.0 mm 0.00 in0.0 mm 0.00 in0.0 mm
02:25 PM 16.2°F-8.8°C 0.4°F-17.6°C 49% 5.0 mph NW8.0 kmh NW -- 30.88 in1045.7 mb 0.00 in0.0 mm 0.00 in0.0 mm 0.00 in0.0 mm
02:30 PM 16.1°F-8.8°C -0.5°F-18.1°C 47% 3.0 mph W4.8 kmh W -- 30.88 in1045.7 mb 0.00 in0.0 mm 0.00 in0.0 mm 0.00 in0.0 mm
02:35 PM 16.0°F-8.9°C -0.6°F-18.1°C 47% 2.0 mph WNW3.2 kmh WNW -- 30.87 in1045.4 mb 0.00 in0.0 mm 0.00 in0.0 mm 0.00 in0.0 mm
02:40 PM 16.3°F-8.7°C 0.5°F-17.5°C 49% 4.0 mph WNW6.4 kmh WNW -- 30.87 in1045.4 mb 0.00 in0.0 mm 0.00 in0.0 mm 0.00 in0.0 mm
02:45 PM 16.3°F-8.7°C 0.5°F-17.5°C 49% 5.0 mph WNW8.0 kmh WNW -- 30.87 in1045.4 mb 0.00 in0.0 mm 0.00 in0.0 mm 0.00 in0.0 mm
02:50 PM 16.0°F-8.9°C -0.2°F-17.9°C 48% 2.0 mph W3.2 kmh W -- 30.87 in1045.4 mb 0.00 in0.0 mm 0.00 in0.0 mm 0.00 in0.0 mm
02:55 PM 16.2°F-8.8°C -0.4°F-18.0°C 47% 4.0 mph NW6.4 kmh NW -- 30.87 in1045.4 mb 0.00 in0.0 mm 0.00 in0.0 mm 0.00 in0.0 mm
03:00 PM 16.2°F-8.8°C 0.0°F-17.8°C 48% 4.0 mph WNW6.4 kmh WNW 6.0 mph9.7 kmh 30.87 in1045.4 mb 0.00 in0.0 mm 0.00 in0.0 mm 0.00 in0.0 mm
03:05 PM 16.2°F-8.8°C 0.4°F-17.6°C 49% 2.0 mph NW3.2 kmh NW 6.0 mph9.7 kmh 30.87 in1045.4 mb 0.00 in0.0 mm 0.00 in0.0 mm 0.00 in0.0 mm
03:10 PM 16.3°F-8.7°C -0.4°F-18.0°C 47% 5.0 mph WNW8.0 kmh WNW -- 30.87 in1045.4 mb 0.00 in0.0 mm 0.00 in0.0 mm 0.00 in0.0 mm
03:15 PM 16.4°F-8.7°C 0.2°F-17.7°C 48% 3.0 mph WNW4.8 kmh WNW -- 30.86 in1045.0 mb 0.00 in0.0 mm 0.00 in0.0 mm 0.00 in0.0 mm
03:20 PM 16.3°F-8.7°C -0.4°F-18.0°C 47% 1.0 mph NW1.6 kmh NW -- 30.87 in1045.4 mb 0.00 in0.0 mm 0.00 in0.0 mm 0.00 in0.0 mm
03:25 PM 16.5°F-8.6°C -0.2°F-17.9°C 47% 4.0 mph NW6.4 kmh NW -- 30.87 in1045.4 mb 0.00 in0.0 mm 0.00 in0.0 mm 0.00 in0.0 mm
03:30 PM 16.7°F-8.5°C 0.0°F-17.8°C 47% 5.0 mph W8.0 kmh W -- 30.87 in1045.4 mb 0.00 in0.0 mm 0.00 in0.0 mm 0.00 in0.0 mm
03:35 PM 16.9°F-8.4°C 0.2°F-17.7°C 47% 4.0 mph WNW6.4 kmh WNW -- 30.86 in1045.0 mb 0.00 in0.0 mm 0.00 in0.0 mm 0.00 in0.0 mm
03:40 PM 17.0°F-8.3°C 0.3°F-17.6°C 47% 1.0 mph W1.6 kmh W -- 30.87 in1045.4 mb 0.00 in0.0 mm 0.00 in0.0 mm 0.00 in0.0 mm
03:45 PM 17.1°F-8.3°C -0.1°F-17.8°C 46% 2.0 mph W3.2 kmh W -- 30.87 in1045.4 mb 0.00 in0.0 mm 0.00 in0.0 mm 0.00 in0.0 mm
03:50 PM 17.3°F-8.2°C 0.6°F-17.4°C 47% 5.0 mph W8.0 kmh W 7.0 mph11.3 kmh 30.87 in1045.4 mb 0.00 in0.0 mm 0.00 in0.0 mm 0.00 in0.0 mm
03:55 PM 17.1°F-8.3°C -0.5°F-18.1°C 45% 2.0 mph NW3.2 kmh NW 7.0 mph11.3 kmh 30.87 in1045.4 mb 0.00 in0.0 mm 0.00 in0.0 mm 0.00 in0.0 mm
04:00 PM 17.3°F-8.2°C 1.0°F-17.2°C 48% 5.0 mph NW8.0 kmh NW -- 30.88 in1045.7 mb 0.00 in0.0 mm 0.00 in0.0 mm 0.00 in0.0 mm
04:05 PM 17.5°F-8.1°C 1.2°F-17.1°C 48% 4.0 mph NW6.4 kmh NW -- 30.87 in1045.4 mb 0.00 in0.0 mm 0.00 in0.0 mm 0.00 in0.0 mm
04:10 PM 17.5°F-8.1°C 0.7°F-17.4°C 47% 4.0 mph W6.4 kmh W -- 30.87 in1045.4 mb 0.00 in0.0 mm 0.00 in0.0 mm 0.00 in0.0 mm
04:15 PM 17.5°F-8.1°C 1.2°F-17.1°C 48% 2.0 mph NW3.2 kmh NW -- 30.88 in1045.7 mb 0.00 in0.0 mm 0.00 in0.0 mm 0.00 in0.0 mm
04:20 PM 17.6°F-8.0°C 1.3°F-17.1°C 48% 4.0 mph W6.4 kmh W -- 30.88 in1045.7 mb 0.00 in0.0 mm 0.00 in0.0 mm 0.00 in0.0 mm
04:25 PM 17.6°F-8.0°C 0.8°F-17.3°C 47% 3.0 mph W4.8 kmh W -- 30.88 in1045.7 mb 0.00 in0.0 mm 0.00 in0.0 mm 0.00 in0.0 mm
04:30 PM 17.7°F-7.9°C 0.9°F-17.3°C 47% 2.0 mph W3.2 kmh W -- 30.88 in1045.7 mb 0.00 in0.0 mm 0.00 in0.0 mm 0.00 in0.0 mm
04:35 PM 17.8°F-7.9°C 1.0°F-17.2°C 47% 2.0 mph W3.2 kmh W -- 30.88 in1045.7 mb 0.00 in0.0 mm 0.00 in0.0 mm 0.00 in0.0 mm
04:40 PM 17.7°F-7.9°C 0.9°F-17.3°C 47% 3.0 mph W4.8 kmh W 6.0 mph9.7 kmh 30.88 in1045.7 mb 0.00 in0.0 mm 0.00 in0.0 mm 0.00 in0.0 mm
04:45 PM 17.8°F-7.9°C 1.5°F-16.9°C 48% Calm Calm 6.0 mph9.7 kmh 30.88 in1045.7 mb 0.00 in0.0 mm 0.00 in0.0 mm 0.00 in0.0 mm
04:50 PM 17.7°F-7.9°C 0.5°F-17.5°C 46% Calm Calm -- 30.87 in1045.4 mb 0.00 in0.0 mm 0.00 in0.0 mm 0.00 in0.0 mm
04:55 PM 17.8°F-7.9°C 1.0°F-17.2°C 47% Calm Calm -- 30.88 in1045.7 mb 0.00 in0.0 mm 0.00 in0.0 mm 0.00 in0.0 mm
05:00 PM 17.9°F-7.8°C 1.6°F-16.9°C 48% Calm Calm -- 30.87 in1045.4 mb 0.00 in0.0 mm 0.00 in0.0 mm 0.00 in0.0 mm
05:05 PM 18.0°F-7.8°C 1.2°F-17.1°C 47% Calm Calm -- 30.87 in1045.4 mb 0.00 in0.0 mm 0.00 in0.0 mm 0.00 in0.0 mm
05:10 PM 17.9°F-7.8°C 1.1°F-17.2°C 47% Calm Calm -- 30.87 in1045.4 mb 0.00 in0.0 mm 0.00 in0.0 mm 0.00 in0.0 mm
05:15 PM 17.9°F-7.8°C 1.1°F-17.2°C 47% Calm Calm -- 30.87 in1045.4 mb 0.00 in0.0 mm 0.00 in0.0 mm 0.00 in0.0 mm
05:20 PM 17.8°F-7.9°C 1.0°F-17.2°C 47% Calm Calm -- 30.87 in1045.4 mb 0.00 in0.0 mm 0.00 in0.0 mm 0.00 in0.0 mm
05:25 PM 17.8°F-7.9°C 1.0°F-17.2°C 47% Calm Calm -- 30.87 in1045.4 mb 0.00 in0.0 mm 0.00 in0.0 mm 0.00 in0.0 mm
05:30 PM 17.8°F-7.9°C 1.0°F-17.2°C 47% Calm Calm -- 30.87 in1045.4 mb 0.00 in0.0 mm 0.00 in0.0 mm 0.00 in0.0 mm
05:35 PM 17.7°F-7.9°C 0.9°F-17.3°C 47% Calm Calm -- 30.86 in1045.0 mb 0.00 in0.0 mm 0.00 in0.0 mm 0.00 in0.0 mm
05:40 PM 17.7°F-7.9°C 0.9°F-17.3°C 47% Calm Calm -- 30.86 in1045.0 mb 0.00 in0.0 mm 0.00 in0.0 mm 0.00 in0.0 mm
05:45 PM 17.7°F-7.9°C 0.9°F-17.3°C 47% Calm Calm -- 30.86 in1045.0 mb 0.00 in0.0 mm 0.00 in0.0 mm 0.00 in0.0 mm
05:50 PM 17.7°F-7.9°C 1.8°F-16.8°C 49% Calm Calm -- 30.86 in1045.0 mb 0.00 in0.0 mm 0.00 in0.0 mm 0.00 in0.0 mm
05:55 PM 17.8°F-7.9°C 1.9°F-16.7°C 49% Calm Calm -- 30.86 in1045.0 mb 0.00 in0.0 mm 0.00 in0.0 mm 0.00 in0.0 mm
06:00 PM 17.7°F-7.9°C 1.4°F-17.0°C 48% Calm Calm -- 30.86 in1045.0 mb 0.00 in0.0 mm 0.00 in0.0 mm 0.00 in0.0 mm
06:05 PM 17.7°F-7.9°C 1.8°F-16.8°C 49% Calm Calm -- 30.86 in1045.0 mb 0.00 in0.0 mm 0.00 in0.0 mm 0.00 in0.0 mm
06:10 PM 17.6°F-8.0°C 2.2°F-16.6°C 50% Calm Calm -- 30.86 in1045.0 mb 0.00 in0.0 mm 0.00 in0.0 mm 0.00 in0.0 mm
06:15 PM 17.6°F-8.0°C 2.2°F-16.6°C 50% Calm Calm -- 30.86 in1045.0 mb 0.00 in0.0 mm 0.00 in0.0 mm 0.00 in0.0 mm
06:20 PM 17.4°F-8.1°C 2.0°F-16.7°C 50% Calm Calm -- 30.86 in1045.0 mb 0.00 in0.0 mm 0.00 in0.0 mm 0.00 in0.0 mm
06:25 PM 17.2°F-8.2°C 1.8°F-16.8°C 50% Calm Calm -- 30.86 in1045.0 mb 0.00 in0.0 mm 0.00 in0.0 mm 0.00 in0.0 mm
06:30 PM 17.0°F-8.3°C 2.9°F-16.2°C 53% Calm Calm -- 30.87 in1045.4 mb 0.00 in0.0 mm 0.00 in0.0 mm 0.00 in0.0 mm
06:35 PM 16.8°F-8.4°C 3.1°F-16.1°C 54% Calm Calm -- 30.87 in1045.4 mb 0.00 in0.0 mm 0.00 in0.0 mm 0.00 in0.0 mm
06:40 PM 16.6°F-8.6°C 2.9°F-16.2°C 54% Calm Calm -- 30.87 in1045.4 mb 0.00 in0.0 mm 0.00 in0.0 mm 0.00 in0.0 mm
06:45 PM 16.4°F-8.7°C 3.1°F-16.1°C 55% Calm Calm -- 30.87 in1045.4 mb 0.00 in0.0 mm 0.00 in0.0 mm 0.00 in0.0 mm
06:50 PM 16.1°F-8.8°C 2.8°F-16.2°C 55% Calm Calm -- 30.88 in1045.7 mb 0.00 in0.0 mm 0.00 in0.0 mm 0.00 in0.0 mm
06:55 PM 15.8°F-9.0°C 2.9°F-16.2°C 56% Calm Calm -- 30.89 in1046.1 mb 0.00 in0.0 mm 0.00 in0.0 mm 0.00 in0.0 mm
07:00 PM 15.1°F-9.4°C 2.3°F-16.5°C 56% Calm Calm -- 30.89 in1046.1 mb 0.00 in0.0 mm 0.00 in0.0 mm 0.00 in0.0 mm
07:05 PM 14.5°F-9.7°C 1.7°F-16.8°C 56% Calm Calm -- 30.89 in1046.1 mb 0.00 in0.0 mm 0.00 in0.0 mm 0.00 in0.0 mm
07:10 PM 14.2°F-9.9°C 1.8°F-16.8°C 57% Calm Calm -- 30.89 in1046.1 mb 0.00 in0.0 mm 0.00 in0.0 mm 0.00 in0.0 mm
07:15 PM 13.7°F-10.2°C 1.7°F-16.8°C 58% Calm Calm -- 30.89 in1046.1 mb 0.00 in0.0 mm 0.00 in0.0 mm 0.00 in0.0 mm
07:20 PM 13.2°F-10.4°C 1.2°F-17.1°C 58% Calm Calm -- 30.90 in1046.4 mb 0.00 in0.0 mm 0.00 in0.0 mm 0.00 in0.0 mm
07:25 PM 12.9°F-10.6°C 1.3°F-17.1°C 59% Calm Calm -- 30.90 in1046.4 mb 0.00 in0.0 mm 0.00 in0.0 mm 0.00 in0.0 mm
07:30 PM 12.8°F-10.7°C 1.2°F-17.1°C 59% Calm Calm -- 30.91 in1046.7 mb 0.00 in0.0 mm 0.00 in0.0 mm 0.00 in0.0 mm
07:35 PM 12.8°F-10.7°C 1.6°F-16.9°C 60% Calm Calm -- 30.91 in1046.7 mb 0.00 in0.0 mm 0.00 in0.0 mm 0.00 in0.0 mm
07:40 PM 12.7°F-10.7°C 1.8°F-16.8°C 61% Calm Calm -- 30.91 in1046.7 mb 0.00 in0.0 mm 0.00 in0.0 mm 0.00 in0.0 mm
07:45 PM 12.6°F-10.8°C 1.7°F-16.8°C 61% Calm Calm -- 30.91 in1046.7 mb 0.00 in0.0 mm 0.00 in0.0 mm 0.00 in0.0 mm
07:50 PM 12.5°F-10.8°C 2.0°F-16.7°C 62% Calm Calm -- 30.91 in1046.7 mb 0.00 in0.0 mm 0.00 in0.0 mm 0.00 in0.0 mm
07:55 PM 12.3°F-10.9°C 2.1°F-16.6°C 63% Calm Calm -- 30.90 in1046.4 mb 0.00 in0.0 mm 0.00 in0.0 mm 0.00 in0.0 mm
08:00 PM 12.2°F-11.0°C 2.0°F-16.7°C 63% Calm Calm -- 30.90 in1046.4 mb 0.00 in0.0 mm 0.00 in0.0 mm 0.00 in0.0 mm
08:05 PM 12.1°F-11.1°C 2.0°F-16.7°C 63% Calm Calm -- 30.90 in1046.4 mb 0.00 in0.0 mm 0.00 in0.0 mm 0.00 in0.0 mm
08:10 PM 12.0°F-11.1°C 1.9°F-16.7°C 63% Calm Calm -- 30.90 in1046.4 mb 0.00 in0.0 mm 0.00 in0.0 mm 0.00 in0.0 mm
08:15 PM 11.9°F-11.2°C 1.8°F-16.8°C 63% Calm Calm -- 30.90 in1046.4 mb 0.00 in0.0 mm 0.00 in0.0 mm 0.00 in0.0 mm
08:20 PM 11.9°F-11.2°C 1.8°F-16.8°C 63% Calm Calm -- 30.89 in1046.1 mb 0.00 in0.0 mm 0.00 in0.0 mm 0.00 in0.0 mm
08:25 PM 11.9°F-11.2°C 1.4°F-17.0°C 62% Calm Calm -- 30.89 in1046.1 mb 0.00 in0.0 mm 0.00 in0.0 mm 0.00 in0.0 mm
08:30 PM 11.7°F-11.3°C 1.2°F-17.1°C 62% Calm Calm -- 30.89 in1046.1 mb 0.00 in0.0 mm 0.00 in0.0 mm 0.00 in0.0 mm
08:35 PM 11.4°F-11.4°C 0.9°F-17.3°C 62% Calm Calm -- 30.89 in1046.1 mb 0.00 in0.0 mm 0.00 in0.0 mm 0.00 in0.0 mm
08:40 PM 11.2°F-11.6°C 1.1°F-17.2°C 63% Calm Calm -- 30.89 in1046.1 mb 0.00 in0.0 mm 0.00 in0.0 mm 0.00 in0.0 mm
08:45 PM 11.0°F-11.7°C 0.9°F-17.3°C 63% Calm Calm -- 30.89 in1046.1 mb 0.00 in0.0 mm 0.00 in0.0 mm 0.00 in0.0 mm
08:50 PM 10.2°F-12.1°C 0.5°F-17.5°C 64% Calm Calm -- 30.89 in1046.1 mb 0.00 in0.0 mm 0.00 in0.0 mm 0.00 in0.0 mm
08:55 PM 9.9°F-12.3°C 0.2°F-17.7°C 64% Calm Calm -- 30.89 in1046.1 mb 0.00 in0.0 mm 0.00 in0.0 mm 0.00 in0.0 mm
09:00 PM 9.9°F-12.3°C 0.2°F-17.7°C 64% Calm Calm -- 30.89 in1046.1 mb 0.00 in0.0 mm 0.00 in0.0 mm 0.00 in0.0 mm
09:05 PM 10.0°F-12.2°C 0.3°F-17.6°C 64% Calm Calm -- 30.89 in1046.1 mb 0.00 in0.0 mm 0.00 in0.0 mm 0.00 in0.0 mm
09:10 PM 9.8°F-12.3°C 0.4°F-17.6°C 65% Calm Calm -- 30.89 in1046.1 mb 0.00 in0.0 mm 0.00 in0.0 mm 0.00 in0.0 mm
09:15 PM 9.6°F-12.4°C 0.2°F-17.7°C 65% Calm Calm -- 30.89 in1046.1 mb 0.00 in0.0 mm 0.00 in0.0 mm 0.00 in0.0 mm
09:20 PM 9.4°F-12.6°C 0.4°F-17.6°C 66% Calm Calm -- 30.89 in1046.1 mb 0.00 in0.0 mm 0.00 in0.0 mm 0.00 in0.0 mm
09:25 PM 9.0°F-12.8°C 0.3°F-17.6°C 67% Calm Calm -- 30.90 in1046.4 mb 0.00 in0.0 mm 0.00 in0.0 mm 0.00 in0.0 mm
09:30 PM 8.8°F-12.9°C 0.4°F-17.6°C 68% Calm Calm -- 30.90 in1046.4 mb 0.00 in0.0 mm 0.00 in0.0 mm 0.00 in0.0 mm
09:35 PM 8.6°F-13.0°C 0.2°F-17.7°C 68% Calm Calm -- 30.90 in1046.4 mb 0.00 in0.0 mm 0.00 in0.0 mm 0.00 in0.0 mm
09:40 PM 8.3°F-13.2°C 0.3°F-17.6°C 69% Calm Calm -- 30.90 in1046.4 mb 0.00 in0.0 mm 0.00 in0.0 mm 0.00 in0.0 mm
09:45 PM 8.2°F-13.2°C 0.5°F-17.5°C 70% Calm Calm -- 30.91 in1046.7 mb 0.00 in0.0 mm 0.00 in0.0 mm 0.00 in0.0 mm
09:50 PM 8.1°F-13.3°C 0.4°F-17.6°C 70% Calm Calm -- 30.91 in1046.7 mb 0.00 in0.0 mm 0.00 in0.0 mm 0.00 in0.0 mm
09:55 PM 8.0°F-13.3°C 0.6°F-17.4°C 71% Calm Calm -- 30.90 in1046.4 mb 0.00 in0.0 mm 0.00 in0.0 mm 0.00 in0.0 mm
10:00 PM 7.7°F-13.5°C 0.3°F-17.6°C 71% Calm Calm -- 30.90 in1046.4 mb 0.00 in0.0 mm 0.00 in0.0 mm 0.00 in0.0 mm
10:05 PM 7.6°F-13.6°C 0.2°F-17.7°C 71% Calm Calm -- 30.90 in1046.4 mb 0.00 in0.0 mm 0.00 in0.0 mm 0.00 in0.0 mm
10:10 PM 7.4°F-13.7°C 0.0°F-17.8°C 71% Calm Calm -- 30.90 in1046.4 mb 0.00 in0.0 mm 0.00 in0.0 mm 0.00 in0.0 mm
10:15 PM 7.5°F-13.6°C 0.4°F-17.6°C 72% Calm Calm -- 30.90 in1046.4 mb 0.00 in0.0 mm 0.00 in0.0 mm 0.00 in0.0 mm
10:20 PM 7.5°F-13.6°C 0.1°F-17.7°C 71% Calm Calm -- 30.90 in1046.4 mb 0.00 in0.0 mm 0.00 in0.0 mm 0.00 in0.0 mm
10:25 PM 7.4°F-13.7°C 0.0°F-17.8°C 71% Calm Calm -- 30.89 in1046.1 mb 0.00 in0.0 mm 0.00 in0.0 mm 0.00 in0.0 mm
10:30 PM 7.4°F-13.7°C 0.3°F-17.6°C 72% Calm Calm -- 30.89 in1046.1 mb 0.00 in0.0 mm 0.00 in0.0 mm 0.00 in0.0 mm
10:35 PM 7.1°F-13.8°C 0.0°F-17.8°C 72% Calm Calm -- 30.89 in1046.1 mb 0.00 in0.0 mm 0.00 in0.0 mm 0.00 in0.0 mm
10:40 PM 6.8°F-14.0°C -0.3°F-17.9°C 72% Calm Calm -- 30.89 in1046.1 mb 0.00 in0.0 mm 0.00 in0.0 mm 0.00 in0.0 mm
10:45 PM 6.5°F-14.2°C -0.6°F-18.1°C 72% Calm Calm -- 30.89 in1046.1 mb 0.00 in0.0 mm 0.00 in0.0 mm 0.00 in0.0 mm
10:50 PM 6.2°F-14.3°C -0.9°F-18.3°C 72% Calm Calm -- 30.89 in1046.1 mb 0.00 in0.0 mm 0.00 in0.0 mm 0.00 in0.0 mm
10:55 PM 6.4°F-14.2°C -0.7°F-18.2°C 72% Calm Calm -- 30.89 in1046.1 mb 0.00 in0.0 mm 0.00 in0.0 mm 0.00 in0.0 mm
11:00 PM 6.5°F-14.2°C -0.9°F-18.3°C 71% Calm Calm -- 30.89 in1046.1 mb 0.00 in0.0 mm 0.00 in0.0 mm 0.00 in0.0 mm
11:05 PM 6.3°F-14.3°C -0.8°F-18.2°C 72% Calm Calm -- 30.89 in1046.1 mb 0.00 in0.0 mm 0.00 in0.0 mm 0.00 in0.0 mm
11:10 PM 6.4°F-14.2°C -0.7°F-18.2°C 72% Calm Calm -- 30.89 in1046.1 mb 0.00 in0.0 mm 0.00 in0.0 mm 0.00 in0.0 mm
11:15 PM 6.6°F-14.1°C -0.2°F-17.9°C 73% Calm Calm -- 30.89 in1046.1 mb 0.00 in0.0 mm 0.00 in0.0 mm 0.00 in0.0 mm
11:20 PM 6.8°F-14.0°C -0.3°F-17.9°C 72% Calm Calm -- 30.89 in1046.1 mb 0.00 in0.0 mm 0.00 in0.0 mm 0.00 in0.0 mm
11:25 PM 6.7°F-14.1°C -0.4°F-18.0°C 72% Calm Calm -- 30.88 in1045.7 mb 0.00 in0.0 mm 0.00 in0.0 mm 0.00 in0.0 mm
11:30 PM 6.5°F-14.2°C -0.6°F-18.1°C 72% Calm Calm -- 30.89 in1046.1 mb 0.00 in0.0 mm 0.00 in0.0 mm 0.00 in0.0 mm
11:35 PM 6.4°F-14.2°C -0.7°F-18.2°C 72% Calm Calm -- 30.89 in1046.1 mb 0.00 in0.0 mm 0.00 in0.0 mm 0.00 in0.0 mm
11:40 PM 6.5°F-14.2°C -0.6°F-18.1°C 72% Calm Calm -- 30.89 in1046.1 mb 0.00 in0.0 mm 0.00 in0.0 mm 0.00 in0.0 mm
11:45 PM 6.4°F-14.2°C -0.7°F-18.2°C 72% Calm Calm -- 30.88 in1045.7 mb 0.00 in0.0 mm 0.00 in0.0 mm 0.00 in0.0 mm
11:50 PM 6.2°F-14.3°C -0.9°F-18.3°C 72% Calm Calm -- 30.89 in1046.1 mb 0.00 in0.0 mm 0.00 in0.0 mm 0.00 in0.0 mm
11:55 PM 6.2°F-14.3°C -0.6°F-18.1°C 73% Calm Calm -- 30.89 in1046.1 mb 0.00 in0.0 mm 0.00 in0.0 mm 0.00 in0.0 mm